sensor_id;sensor_type;location;lat;lon;timestamp;temperature;humidity
15617;DHT22;7908;51.688;7.130;2022-07-18T00:00:31;15.00;99.90
15617;DHT22;7908;51.688;7.130;2022-07-18T00:03:03;14.90;99.90
15617;DHT22;7908;51.688;7.130;2022-07-18T00:05:36;14.90;99.90
15617;DHT22;7908;51.688;7.130;2022-07-18T00:08:13;14.90;99.90
15617;DHT22;7908;51.688;7.130;2022-07-18T00:10:42;14.90;99.90
15617;DHT22;7908;51.688;7.130;2022-07-18T00:13:12;14.80;99.90
15617;DHT22;7908;51.688;7.130;2022-07-18T00:15:41;14.80;99.90
15617;DHT22;7908;51.688;7.130;2022-07-18T00:18:12;14.80;99.90
15617;DHT22;7908;51.688;7.130;2022-07-18T00:20:41;14.80;99.90
15617;DHT22;7908;51.688;7.130;2022-07-18T00:23:10;14.80;99.90
15617;DHT22;7908;51.688;7.130;2022-07-18T00:25:41;14.80;99.90
15617;DHT22;7908;51.688;7.130;2022-07-18T00:28:10;14.70;99.90
15617;DHT22;7908;51.688;7.130;2022-07-18T00:30:40;14.70;99.90
15617;DHT22;7908;51.688;7.130;2022-07-18T00:33:14;14.60;99.90
15617;DHT22;7908;51.688;7.130;2022-07-18T00:35:46;14.60;99.90
15617;DHT22;7908;51.688;7.130;2022-07-18T00:38:22;14.40;99.90
15617;DHT22;7908;51.688;7.130;2022-07-18T00:40:53;14.30;99.90
15617;DHT22;7908;51.688;7.130;2022-07-18T00:43:22;14.20;99.90
15617;DHT22;7908;51.688;7.130;2022-07-18T00:45:53;14.20;99.90
15617;DHT22;7908;51.688;7.130;2022-07-18T00:48:22;14.20;99.90
15617;DHT22;7908;51.688;7.130;2022-07-18T00:50:53;14.10;99.90
15617;DHT22;7908;51.688;7.130;2022-07-18T00:53:30;14.20;99.90
15617;DHT22;7908;51.688;7.130;2022-07-18T00:56:04;14.20;99.90
15617;DHT22;7908;51.688;7.130;2022-07-18T00:58:33;14.30;99.90
15617;DHT22;7908;51.688;7.130;2022-07-18T01:01:02;14.20;99.90
15617;DHT22;7908;51.688;7.130;2022-07-18T01:03:52;14.20;99.90
15617;DHT22;7908;51.688;7.130;2022-07-18T01:06:24;14.20;99.90
15617;DHT22;7908;51.688;7.130;2022-07-18T01:08:53;14.20;99.90
15617;DHT22;7908;51.688;7.130;2022-07-18T01:11:27;14.20;99.90
15617;DHT22;7908;51.688;7.130;2022-07-18T01:13:56;14.10;99.90
15617;DHT22;7908;51.688;7.130;2022-07-18T01:16:28;14.10;99.90
15617;DHT22;7908;51.688;7.130;2022-07-18T01:18:57;14.10;99.90
15617;DHT22;7908;51.688;7.130;2022-07-18T01:21:27;14.10;99.90
15617;DHT22;7908;51.688;7.130;2022-07-18T01:23:56;14.10;99.90
15617;DHT22;7908;51.688;7.130;2022-07-18T01:26:28;14.10;99.90
15617;DHT22;7908;51.688;7.130;2022-07-18T01:29:03;14.00;99.90
15617;DHT22;7908;51.688;7.130;2022-07-18T01:31:32;14.00;99.90
15617;DHT22;7908;51.688;7.130;2022-07-18T01:34:04;14.00;99.90
15617;DHT22;7908;51.688;7.130;2022-07-18T01:36:35;13.90;99.90
15617;DHT22;7908;51.688;7.130;2022-07-18T01:39:03;13.90;99.90
15617;DHT22;7908;51.688;7.130;2022-07-18T01:41:32;13.90;99.90
15617;DHT22;7908;51.688;7.130;2022-07-18T01:44:07;13.80;99.90
15617;DHT22;7908;51.688;7.130;2022-07-18T01:46:37;13.80;99.90
15617;DHT22;7908;51.688;7.130;2022-07-18T01:49:06;13.80;99.90
15617;DHT22;7908;51.688;7.130;2022-07-18T01:51:39;13.80;99.90
15617;DHT22;7908;51.688;7.130;2022-07-18T01:54:11;13.70;99.90
15617;DHT22;7908;51.688;7.130;2022-07-18T01:56:40;13.70;99.90
15617;DHT22;7908;51.688;7.130;2022-07-18T01:59:09;13.70;99.90
15617;DHT22;7908;51.688;7.130;2022-07-18T02:01:37;13.70;99.90
15617;DHT22;7908;51.688;7.130;2022-07-18T02:04:06;13.70;99.90
15617;DHT22;7908;51.688;7.130;2022-07-18T02:06:38;13.70;99.90
15617;DHT22;7908;51.688;7.130;2022-07-18T02:09:08;13.50;99.90
15617;DHT22;7908;51.688;7.130;2022-07-18T02:11:40;13.50;99.90
15617;DHT22;7908;51.688;7.130;2022-07-18T02:14:09;13.50;99.90
15617;DHT22;7908;51.688;7.130;2022-07-18T02:16:43;13.40;99.90
15617;DHT22;7908;51.688;7.130;2022-07-18T02:19:12;13.30;99.90
15617;DHT22;7908;51.688;7.130;2022-07-18T02:21:42;13.30;99.90
15617;DHT22;7908;51.688;7.130;2022-07-18T02:24:11;13.40;99.90
15617;DHT22;7908;51.688;7.130;2022-07-18T02:26:39;13.40;99.90
15617;DHT22;7908;51.688;7.130;2022-07-18T02:29:09;13.40;99.90
15617;DHT22;7908;51.688;7.130;2022-07-18T02:31:38;13.30;99.90
15617;DHT22;7908;51.688;7.130;2022-07-18T02:34:11;13.30;99.90
15617;DHT22;7908;51.688;7.130;2022-07-18T02:36:44;13.40;99.90
15617;DHT22;7908;51.688;7.130;2022-07-18T02:39:15;13.40;99.90
15617;DHT22;7908;51.688;7.130;2022-07-18T02:41:45;13.30;99.90
15617;DHT22;7908;51.688;7.130;2022-07-18T02:44:18;13.20;99.90
15617;DHT22;7908;51.688;7.130;2022-07-18T02:46:48;13.20;99.90
15617;DHT22;7908;51.688;7.130;2022-07-18T02:49:16;13.20;99.90
15617;DHT22;7908;51.688;7.130;2022-07-18T02:52:02;13.20;99.90
15617;DHT22;7908;51.688;7.130;2022-07-18T02:54:34;13.10;99.90
15617;DHT22;7908;51.688;7.130;2022-07-18T02:57:04;13.00;99.90
15617;DHT22;7908;51.688;7.130;2022-07-18T02:59:33;12.90;99.90
15617;DHT22;7908;51.688;7.130;2022-07-18T03:02:02;12.80;99.90
15617;DHT22;7908;51.688;7.130;2022-07-18T03:04:34;12.80;99.90
15617;DHT22;7908;51.688;7.130;2022-07-18T03:07:07;12.80;99.90
15617;DHT22;7908;51.688;7.130;2022-07-18T03:09:36;12.80;99.90
15617;DHT22;7908;51.688;7.130;2022-07-18T03:12:05;12.90;99.90
15617;DHT22;7908;51.688;7.130;2022-07-18T03:14:34;12.80;99.90
15617;DHT22;7908;51.688;7.130;2022-07-18T03:17:03;12.80;99.90
15617;DHT22;7908;51.688;7.130;2022-07-18T03:19:33;12.80;99.90
15617;DHT22;7908;51.688;7.130;2022-07-18T03:22:04;12.70;99.90
15617;DHT22;7908;51.688;7.130;2022-07-18T03:24:38;12.70;99.90
15617;DHT22;7908;51.688;7.130;2022-07-18T03:27:07;12.70;99.90
15617;DHT22;7908;51.688;7.130;2022-07-18T03:29:36;12.60;99.90
15617;DHT22;7908;51.688;7.130;2022-07-18T03:32:05;12.50;99.90
15617;DHT22;7908;51.688;7.130;2022-07-18T03:34:34;12.60;99.90
15617;DHT22;7908;51.688;7.130;2022-07-18T03:37:03;12.60;99.90
15617;DHT22;7908;51.688;7.130;2022-07-18T03:39:36;12.60;99.90
15617;DHT22;7908;51.688;7.130;2022-07-18T03:42:05;12.60;99.90
15617;DHT22;7908;51.688;7.130;2022-07-18T03:44:33;12.60;99.90
15617;DHT22;7908;51.688;7.130;2022-07-18T03:47:02;12.60;99.90
15617;DHT22;7908;51.688;7.130;2022-07-18T03:49:35;12.60;99.90
15617;DHT22;7908;51.688;7.130;2022-07-18T03:52:07;12.60;99.90
15617;DHT22;7908;51.688;7.130;2022-07-18T03:54:37;12.50;99.90
15617;DHT22;7908;51.688;7.130;2022-07-18T03:57:06;12.40;99.90
15617;DHT22;7908;51.688;7.130;2022-07-18T03:59:36;12.30;99.90
15617;DHT22;7908;51.688;7.130;2022-07-18T04:02:06;12.30;99.90
15617;DHT22;7908;51.688;7.130;2022-07-18T04:04:37;12.40;99.90
15617;DHT22;7908;51.688;7.130;2022-07-18T04:07:12;12.40;99.90
15617;DHT22;7908;51.688;7.130;2022-07-18T04:09:46;12.40;99.90
15617;DHT22;7908;51.688;7.130;2022-07-18T04:12:15;12.40;99.90
15617;DHT22;7908;51.688;7.130;2022-07-18T04:14:44;12.40;99.90
15617;DHT22;7908;51.688;7.130;2022-07-18T04:17:13;12.50;99.90
15617;DHT22;7908;51.688;7.130;2022-07-18T04:19:44;12.60;99.90
15617;DHT22;7908;51.688;7.130;2022-07-18T04:22:16;12.60;99.90
15617;DHT22;7908;51.688;7.130;2022-07-18T04:24:46;12.60;99.90
15617;DHT22;7908;51.688;7.130;2022-07-18T04:27:22;12.60;99.90
15617;DHT22;7908;51.688;7.130;2022-07-18T04:29:54;12.60;99.90
15617;DHT22;7908;51.688;7.130;2022-07-18T04:32:23;12.70;99.90
15617;DHT22;7908;51.688;7.130;2022-07-18T04:34:54;12.70;99.90
15617;DHT22;7908;51.688;7.130;2022-07-18T04:37:34;12.70;99.90
15617;DHT22;7908;51.688;7.130;2022-07-18T04:40:07;12.80;99.90
15617;DHT22;7908;51.688;7.130;2022-07-18T04:42:37;12.80;99.90
15617;DHT22;7908;51.688;7.130;2022-07-18T04:45:08;12.80;99.90
15617;DHT22;7908;51.688;7.130;2022-07-18T04:47:40;12.90;99.90
15617;DHT22;7908;51.688;7.130;2022-07-18T04:50:09;13.00;99.90
15617;DHT22;7908;51.688;7.130;2022-07-18T04:52:40;13.10;99.90
15617;DHT22;7908;51.688;7.130;2022-07-18T04:55:12;13.20;99.90
15617;DHT22;7908;51.688;7.130;2022-07-18T04:57:43;13.40;99.90
15617;DHT22;7908;51.688;7.130;2022-07-18T05:00:15;13.60;99.90
15617;DHT22;7908;51.688;7.130;2022-07-18T05:02:49;13.90;99.90
15617;DHT22;7908;51.688;7.130;2022-07-18T05:05:19;14.00;99.90
15617;DHT22;7908;51.688;7.130;2022-07-18T05:07:51;14.20;99.90
15617;DHT22;7908;51.688;7.130;2022-07-18T05:10:23;14.40;99.90
15617;DHT22;7908;51.688;7.130;2022-07-18T05:12:53;14.50;99.90
15617;DHT22;7908;51.688;7.130;2022-07-18T05:15:27;14.60;99.90
15617;DHT22;7908;51.688;7.130;2022-07-18T05:17:57;14.80;99.90
15617;DHT22;7908;51.688;7.130;2022-07-18T05:20:26;14.90;99.90
15617;DHT22;7908;51.688;7.130;2022-07-18T05:22:55;14.90;99.90
15617;DHT22;7908;51.688;7.130;2022-07-18T05:25:29;15.00;99.90
15617;DHT22;7908;51.688;7.130;2022-07-18T05:27:59;15.10;99.90
15617;DHT22;7908;51.688;7.130;2022-07-18T05:30:28;15.20;99.90
15617;DHT22;7908;51.688;7.130;2022-07-18T05:33:07;15.30;99.90
15617;DHT22;7908;51.688;7.130;2022-07-18T05:35:40;15.50;99.90
15617;DHT22;7908;51.688;7.130;2022-07-18T05:38:11;15.70;99.90
15617;DHT22;7908;51.688;7.130;2022-07-18T05:40:42;15.90;99.90
15617;DHT22;7908;51.688;7.130;2022-07-18T05:43:13;16.00;99.90
15617;DHT22;7908;51.688;7.130;2022-07-18T05:45:48;16.10;99.90
15617;DHT22;7908;51.688;7.130;2022-07-18T05:48:16;16.20;99.90
15617;DHT22;7908;51.688;7.130;2022-07-18T05:50:45;16.30;99.90
15617;DHT22;7908;51.688;7.130;2022-07-18T05:53:15;16.50;99.90
15617;DHT22;7908;51.688;7.130;2022-07-18T05:55:46;16.60;99.90
15617;DHT22;7908;51.688;7.130;2022-07-18T05:58:14;16.70;99.90
15617;DHT22;7908;51.688;7.130;2022-07-18T06:00:45;16.90;99.90
15617;DHT22;7908;51.688;7.130;2022-07-18T06:03:18;17.00;99.90
15617;DHT22;7908;51.688;7.130;2022-07-18T06:05:48;17.10;99.90
15617;DHT22;7908;51.688;7.130;2022-07-18T06:08:26;17.30;99.90
15617;DHT22;7908;51.688;7.130;2022-07-18T06:10:56;17.50;99.90
15617;DHT22;7908;51.688;7.130;2022-07-18T06:13:25;17.80;99.90
15617;DHT22;7908;51.688;7.130;2022-07-18T06:15:58;18.00;99.90
15617;DHT22;7908;51.688;7.130;2022-07-18T06:18:27;18.30;99.90
15617;DHT22;7908;51.688;7.130;2022-07-18T06:21:04;18.50;99.90
15617;DHT22;7908;51.688;7.130;2022-07-18T06:23:34;18.70;99.90
15617;DHT22;7908;51.688;7.130;2022-07-18T06:26:05;18.80;99.90
15617;DHT22;7908;51.688;7.130;2022-07-18T06:28:34;19.00;99.90
15617;DHT22;7908;51.688;7.130;2022-07-18T06:31:05;19.20;99.90
15617;DHT22;7908;51.688;7.130;2022-07-18T06:33:34;19.40;99.90
15617;DHT22;7908;51.688;7.130;2022-07-18T06:36:04;19.60;99.90
15617;DHT22;7908;51.688;7.130;2022-07-18T06:38:34;19.80;99.90
15617;DHT22;7908;51.688;7.130;2022-07-18T06:41:07;20.00;99.90
15617;DHT22;7908;51.688;7.130;2022-07-18T06:43:36;20.20;99.90
15617;DHT22;7908;51.688;7.130;2022-07-18T06:46:10;20.30;99.90
15617;DHT22;7908;51.688;7.130;2022-07-18T06:48:41;20.60;99.90
15617;DHT22;7908;51.688;7.130;2022-07-18T06:51:13;20.80;99.90
15617;DHT22;7908;51.688;7.130;2022-07-18T06:53:46;21.00;99.90
15617;DHT22;7908;51.688;7.130;2022-07-18T06:56:20;21.30;99.90
15617;DHT22;7908;51.688;7.130;2022-07-18T06:58:51;21.50;99.90
15617;DHT22;7908;51.688;7.130;2022-07-18T07:01:20;21.70;99.90
15617;DHT22;7908;51.688;7.130;2022-07-18T07:03:51;21.90;99.90
15617;DHT22;7908;51.688;7.130;2022-07-18T07:06:21;22.00;99.90
15617;DHT22;7908;51.688;7.130;2022-07-18T07:08:51;22.30;99.90
15617;DHT22;7908;51.688;7.130;2022-07-18T07:11:21;22.60;99.90
15617;DHT22;7908;51.688;7.130;2022-07-18T07:13:52;22.70;99.90
15617;DHT22;7908;51.688;7.130;2022-07-18T07:16:21;22.80;99.90
15617;DHT22;7908;51.688;7.130;2022-07-18T07:19:01;22.90;99.90
15617;DHT22;7908;51.688;7.130;2022-07-18T07:21:32;23.00;99.90
15617;DHT22;7908;51.688;7.130;2022-07-18T07:24:04;23.20;99.90
15617;DHT22;7908;51.688;7.130;2022-07-18T07:26:39;23.50;99.90
15617;DHT22;7908;51.688;7.130;2022-07-18T07:29:08;23.60;98.00
15617;DHT22;7908;51.688;7.130;2022-07-18T07:31:37;23.90;97.30
15617;DHT22;7908;51.688;7.130;2022-07-18T07:34:06;24.00;97.40
15617;DHT22;7908;51.688;7.130;2022-07-18T07:36:37;24.10;97.30
15617;DHT22;7908;51.688;7.130;2022-07-18T07:39:06;24.20;95.80
15617;DHT22;7908;51.688;7.130;2022-07-18T07:41:40;24.30;95.70
15617;DHT22;7908;51.688;7.130;2022-07-18T07:44:09;24.40;95.50
15617;DHT22;7908;51.688;7.130;2022-07-18T07:46:43;24.30;94.90
15617;DHT22;7908;51.688;7.130;2022-07-18T07:49:12;24.20;95.40
15617;DHT22;7908;51.688;7.130;2022-07-18T07:51:48;24.20;95.60
15617;DHT22;7908;51.688;7.130;2022-07-18T07:54:19;24.30;95.40
15617;DHT22;7908;51.688;7.130;2022-07-18T07:56:50;24.30;95.60
15617;DHT22;7908;51.688;7.130;2022-07-18T07:59:27;24.50;95.00
15617;DHT22;7908;51.688;7.130;2022-07-18T08:02:03;24.60;94.60
15617;DHT22;7908;51.688;7.130;2022-07-18T08:04:32;24.80;94.30
15617;DHT22;7908;51.688;7.130;2022-07-18T08:07:01;24.90;93.50
15617;DHT22;7908;51.688;7.130;2022-07-18T08:09:30;25.00;93.00
15617;DHT22;7908;51.688;7.130;2022-07-18T08:12:03;25.00;92.30
15617;DHT22;7908;51.688;7.130;2022-07-18T08:14:36;25.00;92.40
15617;DHT22;7908;51.688;7.130;2022-07-18T08:17:07;25.20;91.80
15617;DHT22;7908;51.688;7.130;2022-07-18T08:19:39;25.30;91.40
15617;DHT22;7908;51.688;7.130;2022-07-18T08:22:08;25.40;91.60
15617;DHT22;7908;51.688;7.130;2022-07-18T08:24:39;25.50;91.50
15617;DHT22;7908;51.688;7.130;2022-07-18T08:27:14;25.60;91.10
15617;DHT22;7908;51.688;7.130;2022-07-18T08:29:43;25.70;90.70
15617;DHT22;7908;51.688;7.130;2022-07-18T08:32:36;25.80;90.60
15617;DHT22;7908;51.688;7.130;2022-07-18T08:35:08;25.80;89.70
15617;DHT22;7908;51.688;7.130;2022-07-18T08:37:37;25.90;90.20
15617;DHT22;7908;51.688;7.130;2022-07-18T08:40:07;26.00;89.50
15617;DHT22;7908;51.688;7.130;2022-07-18T08:42:43;26.10;89.90
15617;DHT22;7908;51.688;7.130;2022-07-18T08:45:36;26.10;88.00
15617;DHT22;7908;51.688;7.130;2022-07-18T08:48:08;26.10;87.30
15617;DHT22;7908;51.688;7.130;2022-07-18T08:50:38;26.20;87.00
15617;DHT22;7908;51.688;7.130;2022-07-18T08:53:07;26.20;85.60
15617;DHT22;7908;51.688;7.130;2022-07-18T08:55:38;26.30;85.70
15617;DHT22;7908;51.688;7.130;2022-07-18T08:58:10;26.40;85.80
15617;DHT22;7908;51.688;7.130;2022-07-18T09:01:02;26.50;84.10
15617;DHT22;7908;51.688;7.130;2022-07-18T09:03:37;26.50;84.60
15617;DHT22;7908;51.688;7.130;2022-07-18T09:06:13;26.60;85.80
15617;DHT22;7908;51.688;7.130;2022-07-18T09:08:57;26.70;84.00
15617;DHT22;7908;51.688;7.130;2022-07-18T09:11:32;27.00;83.70
15617;DHT22;7908;51.688;7.130;2022-07-18T09:14:32;27.10;83.50
15617;DHT22;7908;51.688;7.130;2022-07-18T09:17:13;27.20;81.80
15617;DHT22;7908;51.688;7.130;2022-07-18T09:20:00;27.30;78.50
15617;DHT22;7908;51.688;7.130;2022-07-18T09:22:32;27.50;79.70
15617;DHT22;7908;51.688;7.130;2022-07-18T09:25:07;27.50;77.80
15617;DHT22;7908;51.688;7.130;2022-07-18T09:27:41;27.50;77.70
15617;DHT22;7908;51.688;7.130;2022-07-18T09:30:40;27.60;77.80
15617;DHT22;7908;51.688;7.130;2022-07-18T09:33:10;27.60;77.30
15617;DHT22;7908;51.688;7.130;2022-07-18T09:35:46;27.60;77.90
15617;DHT22;7908;51.688;7.130;2022-07-18T09:38:18;27.60;76.90
15617;DHT22;7908;51.688;7.130;2022-07-18T09:40:49;27.70;76.60
15617;DHT22;7908;51.688;7.130;2022-07-18T09:43:23;27.80;76.10
15617;DHT22;7908;51.688;7.130;2022-07-18T09:46:05;27.90;76.30
15617;DHT22;7908;51.688;7.130;2022-07-18T09:48:35;27.90;75.50
15617;DHT22;7908;51.688;7.130;2022-07-18T09:51:20;28.00;74.60
15617;DHT22;7908;51.688;7.130;2022-07-18T09:53:49;28.10;73.80
15617;DHT22;7908;51.688;7.130;2022-07-18T09:56:24;28.10;72.10
15617;DHT22;7908;51.688;7.130;2022-07-18T09:59:01;28.30;70.50
15617;DHT22;7908;51.688;7.130;2022-07-18T10:01:32;28.30;72.20
15617;DHT22;7908;51.688;7.130;2022-07-18T10:04:07;28.30;71.50
15617;DHT22;7908;51.688;7.130;2022-07-18T10:06:43;28.40;70.70
15617;DHT22;7908;51.688;7.130;2022-07-18T10:09:21;28.40;69.00
15617;DHT22;7908;51.688;7.130;2022-07-18T10:12:02;28.40;68.90
15617;DHT22;7908;51.688;7.130;2022-07-18T10:14:32;28.60;70.10
15617;DHT22;7908;51.688;7.130;2022-07-18T10:17:04;28.60;67.00
15617;DHT22;7908;51.688;7.130;2022-07-18T10:19:36;28.60;66.80
15617;DHT22;7908;51.688;7.130;2022-07-18T10:22:12;28.60;67.60
15617;DHT22;7908;51.688;7.130;2022-07-18T10:24:42;28.70;67.40
15617;DHT22;7908;51.688;7.130;2022-07-18T10:27:14;28.80;67.00
15617;DHT22;7908;51.688;7.130;2022-07-18T10:30:08;28.80;66.70
15617;DHT22;7908;51.688;7.130;2022-07-18T10:32:43;28.70;65.60
15617;DHT22;7908;51.688;7.130;2022-07-18T10:35:16;28.60;63.90
15617;DHT22;7908;51.688;7.130;2022-07-18T10:37:45;28.60;64.70
15617;DHT22;7908;51.688;7.130;2022-07-18T10:40:28;28.70;63.50
15617;DHT22;7908;51.688;7.130;2022-07-18T10:46:17;29.00;64.50
15617;DHT22;7908;51.688;7.130;2022-07-18T10:48:59;29.20;64.20
15617;DHT22;7908;51.688;7.130;2022-07-18T10:51:33;29.20;62.60
15617;DHT22;7908;51.688;7.130;2022-07-18T10:54:11;29.20;62.20
15617;DHT22;7908;51.688;7.130;2022-07-18T10:57:09;29.10;61.50
15617;DHT22;7908;51.688;7.130;2022-07-18T10:59:59;29.10;60.20
15617;DHT22;7908;51.688;7.130;2022-07-18T11:02:37;29.00;60.10
15617;DHT22;7908;51.688;7.130;2022-07-18T11:05:33;29.10;60.20
15617;DHT22;7908;51.688;7.130;2022-07-18T11:08:21;29.00;59.10
15617;DHT22;7908;51.688;7.130;2022-07-18T11:11:18;29.10;59.20
15617;DHT22;7908;51.688;7.130;2022-07-18T11:13:47;29.20;59.00
15617;DHT22;7908;51.688;7.130;2022-07-18T11:16:22;29.20;60.50
15617;DHT22;7908;51.688;7.130;2022-07-18T11:19:16;29.40;60.90
15617;DHT22;7908;51.688;7.130;2022-07-18T11:21:59;29.50;60.20
15617;DHT22;7908;51.688;7.130;2022-07-18T11:24:30;29.60;59.60
15617;DHT22;7908;51.688;7.130;2022-07-18T11:27:04;29.60;60.00
15617;DHT22;7908;51.688;7.130;2022-07-18T11:29:40;29.50;59.10
15617;DHT22;7908;51.688;7.130;2022-07-18T11:32:10;29.50;57.30
15617;DHT22;7908;51.688;7.130;2022-07-18T11:34:49;29.50;58.30
15617;DHT22;7908;51.688;7.130;2022-07-18T11:37:22;29.50;58.50
15617;DHT22;7908;51.688;7.130;2022-07-18T11:39:52;29.60;58.60
15617;DHT22;7908;51.688;7.130;2022-07-18T11:42:35;29.60;58.30
15617;DHT22;7908;51.688;7.130;2022-07-18T11:45:08;29.80;58.70
15617;DHT22;7908;51.688;7.130;2022-07-18T11:47:46;29.90;58.60
15617;DHT22;7908;51.688;7.130;2022-07-18T11:50:17;29.90;58.10
15617;DHT22;7908;51.688;7.130;2022-07-18T11:52:56;29.90;58.70
15617;DHT22;7908;51.688;7.130;2022-07-18T11:55:35;30.10;57.20
15617;DHT22;7908;51.688;7.130;2022-07-18T11:58:11;30.10;57.90
15617;DHT22;7908;51.688;7.130;2022-07-18T12:00:57;30.00;56.40
15617;DHT22;7908;51.688;7.130;2022-07-18T12:03:29;30.00;56.40
15617;DHT22;7908;51.688;7.130;2022-07-18T12:06:10;30.00;57.80
15617;DHT22;7908;51.688;7.130;2022-07-18T12:08:50;30.10;58.10
15617;DHT22;7908;51.688;7.130;2022-07-18T12:11:27;30.30;57.90
15617;DHT22;7908;51.688;7.130;2022-07-18T12:14:00;30.30;55.90
15617;DHT22;7908;51.688;7.130;2022-07-18T12:16:38;30.30;57.00
15617;DHT22;7908;51.688;7.130;2022-07-18T12:19:10;30.30;56.50
15617;DHT22;7908;51.688;7.130;2022-07-18T12:21:49;30.30;56.70
15617;DHT22;7908;51.688;7.130;2022-07-18T12:24:24;30.40;55.40
15617;DHT22;7908;51.688;7.130;2022-07-18T12:27:24;30.60;55.20
15617;DHT22;7908;51.688;7.130;2022-07-18T12:30:05;30.70;55.10
15617;DHT22;7908;51.688;7.130;2022-07-18T12:32:46;30.80;54.00
15617;DHT22;7908;51.688;7.130;2022-07-18T12:35:23;31.20;54.00
15617;DHT22;7908;51.688;7.130;2022-07-18T12:38:04;31.40;54.50
15617;DHT22;7908;51.688;7.130;2022-07-18T12:40:46;31.60;54.20
15617;DHT22;7908;51.688;7.130;2022-07-18T12:43:23;31.60;54.50
15617;DHT22;7908;51.688;7.130;2022-07-18T12:45:54;31.80;53.80
15617;DHT22;7908;51.688;7.130;2022-07-18T12:48:28;32.00;54.30
15617;DHT22;7908;51.688;7.130;2022-07-18T12:51:01;32.10;53.10
15617;DHT22;7908;51.688;7.130;2022-07-18T12:53:35;32.20;52.70
15617;DHT22;7908;51.688;7.130;2022-07-18T12:56:10;32.10;51.30
15617;DHT22;7908;51.688;7.130;2022-07-18T12:58:39;32.00;51.50
15617;DHT22;7908;51.688;7.130;2022-07-18T13:01:16;32.00;52.20
15617;DHT22;7908;51.688;7.130;2022-07-18T13:03:46;32.10;52.90
15617;DHT22;7908;51.688;7.130;2022-07-18T13:06:18;32.10;53.40
15617;DHT22;7908;51.688;7.130;2022-07-18T13:08:48;32.20;52.30
15617;DHT22;7908;51.688;7.130;2022-07-18T13:11:24;32.10;52.00
15617;DHT22;7908;51.688;7.130;2022-07-18T13:14:02;32.10;52.30
15617;DHT22;7908;51.688;7.130;2022-07-18T13:16:33;32.10;53.10
15617;DHT22;7908;51.688;7.130;2022-07-18T13:19:06;32.00;51.40
15617;DHT22;7908;51.688;7.130;2022-07-18T13:21:39;32.00;52.10
15617;DHT22;7908;51.688;7.130;2022-07-18T13:24:07;31.90;51.80
15617;DHT22;7908;51.688;7.130;2022-07-18T13:26:44;31.90;52.10
15617;DHT22;7908;51.688;7.130;2022-07-18T13:29:15;32.00;52.50
15617;DHT22;7908;51.688;7.130;2022-07-18T13:31:47;31.90;52.20
15617;DHT22;7908;51.688;7.130;2022-07-18T13:34:20;32.00;53.30
15617;DHT22;7908;51.688;7.130;2022-07-18T13:36:51;32.00;53.10
15617;DHT22;7908;51.688;7.130;2022-07-18T13:39:20;32.10;53.50
15617;DHT22;7908;51.688;7.130;2022-07-18T13:41:51;32.20;53.20
15617;DHT22;7908;51.688;7.130;2022-07-18T13:44:24;32.20;53.00
15617;DHT22;7908;51.688;7.130;2022-07-18T13:46:55;32.10;52.50
15617;DHT22;7908;51.688;7.130;2022-07-18T13:49:24;32.20;52.90
15617;DHT22;7908;51.688;7.130;2022-07-18T13:51:56;32.20;52.50
15617;DHT22;7908;51.688;7.130;2022-07-18T13:54:28;32.20;52.70
15617;DHT22;7908;51.688;7.130;2022-07-18T13:57:04;32.20;52.70
15617;DHT22;7908;51.688;7.130;2022-07-18T13:59:39;32.00;51.50
15617;DHT22;7908;51.688;7.130;2022-07-18T14:02:11;31.90;50.90
15617;DHT22;7908;51.688;7.130;2022-07-18T14:04:40;31.80;51.60
15617;DHT22;7908;51.688;7.130;2022-07-18T14:07:33;31.80;52.40
15617;DHT22;7908;51.688;7.130;2022-07-18T14:10:07;31.90;53.40
15617;DHT22;7908;51.688;7.130;2022-07-18T14:12:40;31.90;52.80
15617;DHT22;7908;51.688;7.130;2022-07-18T14:15:25;31.90;51.80
15617;DHT22;7908;51.688;7.130;2022-07-18T14:17:56;31.90;51.40
15617;DHT22;7908;51.688;7.130;2022-07-18T14:20:25;31.90;51.30
15617;DHT22;7908;51.688;7.130;2022-07-18T14:22:54;31.90;52.10
15617;DHT22;7908;51.688;7.130;2022-07-18T14:25:30;31.90;52.20
15617;DHT22;7908;51.688;7.130;2022-07-18T14:28:02;31.90;51.80
15617;DHT22;7908;51.688;7.130;2022-07-18T14:30:32;31.90;51.80
15617;DHT22;7908;51.688;7.130;2022-07-18T14:33:01;32.00;51.80
15617;DHT22;7908;51.688;7.130;2022-07-18T14:35:36;32.10;51.80
15617;DHT22;7908;51.688;7.130;2022-07-18T14:38:05;32.00;51.60
15617;DHT22;7908;51.688;7.130;2022-07-18T14:40:34;32.00;50.90
15617;DHT22;7908;51.688;7.130;2022-07-18T14:43:05;32.00;52.30
15617;DHT22;7908;51.688;7.130;2022-07-18T14:45:37;32.00;51.50
15617;DHT22;7908;51.688;7.130;2022-07-18T14:48:30;32.00;51.00
15617;DHT22;7908;51.688;7.130;2022-07-18T14:50:59;32.00;49.90
15617;DHT22;7908;51.688;7.130;2022-07-18T14:53:28;32.00;50.60
15617;DHT22;7908;51.688;7.130;2022-07-18T14:56:00;32.00;51.80
15617;DHT22;7908;51.688;7.130;2022-07-18T14:58:33;32.00;50.00
15617;DHT22;7908;51.688;7.130;2022-07-18T15:01:09;32.00;49.90
15617;DHT22;7908;51.688;7.130;2022-07-18T15:03:40;32.00;50.60
15617;DHT22;7908;51.688;7.130;2022-07-18T15:06:24;32.10;50.70
15617;DHT22;7908;51.688;7.130;2022-07-18T15:08:55;32.10;51.20
15617;DHT22;7908;51.688;7.130;2022-07-18T15:11:24;32.20;51.00
15617;DHT22;7908;51.688;7.130;2022-07-18T15:13:59;32.20;50.80
15617;DHT22;7908;51.688;7.130;2022-07-18T15:16:36;32.30;51.20
15617;DHT22;7908;51.688;7.130;2022-07-18T15:19:05;32.30;50.50
15617;DHT22;7908;51.688;7.130;2022-07-18T15:21:36;32.30;49.70
15617;DHT22;7908;51.688;7.130;2022-07-18T15:24:08;32.30;52.40
15617;DHT22;7908;51.688;7.130;2022-07-18T15:26:39;32.20;50.90
15617;DHT22;7908;51.688;7.130;2022-07-18T15:29:09;32.30;49.60
15617;DHT22;7908;51.688;7.130;2022-07-18T15:31:41;32.20;49.30
15617;DHT22;7908;51.688;7.130;2022-07-18T15:34:27;32.30;50.60
15617;DHT22;7908;51.688;7.130;2022-07-18T15:36:56;32.30;50.50
15617;DHT22;7908;51.688;7.130;2022-07-18T15:39:25;32.30;50.40
15617;DHT22;7908;51.688;7.130;2022-07-18T15:41:54;32.40;50.50
15617;DHT22;7908;51.688;7.130;2022-07-18T15:44:29;32.40;50.30
15617;DHT22;7908;51.688;7.130;2022-07-18T15:47:11;32.40;50.40
15617;DHT22;7908;51.688;7.130;2022-07-18T15:49:40;32.50;51.80
15617;DHT22;7908;51.688;7.130;2022-07-18T15:52:09;32.50;51.00
15617;DHT22;7908;51.688;7.130;2022-07-18T15:54:41;32.60;50.20
15617;DHT22;7908;51.688;7.130;2022-07-18T15:57:13;32.40;49.70
15617;DHT22;7908;51.688;7.130;2022-07-18T15:59:44;32.40;50.50
15617;DHT22;7908;51.688;7.130;2022-07-18T16:02:16;32.40;50.50
15617;DHT22;7908;51.688;7.130;2022-07-18T16:04:48;32.40;49.90
15617;DHT22;7908;51.688;7.130;2022-07-18T16:07:24;32.40;50.60
15617;DHT22;7908;51.688;7.130;2022-07-18T16:09:58;32.50;50.90
15617;DHT22;7908;51.688;7.130;2022-07-18T16:12:32;32.60;51.60
15617;DHT22;7908;51.688;7.130;2022-07-18T16:15:09;32.60;51.20
15617;DHT22;7908;51.688;7.130;2022-07-18T16:17:40;32.60;50.80
15617;DHT22;7908;51.688;7.130;2022-07-18T16:20:12;32.50;49.60
15617;DHT22;7908;51.688;7.130;2022-07-18T16:22:44;32.50;50.30
15617;DHT22;7908;51.688;7.130;2022-07-18T16:25:13;32.40;49.40